Time,TemperatureF,DewpointF,PressureIn,WindDirection,WindDirectionDegrees,WindSpeedMPH,WindSpeedGustMPH,Humidity,HourlyPrecipIn,Conditions,Clouds,dailyrainin,SoftwareType,DateUTC
2013-01-21 07:00:00,19.6,10.4,30.19,WSW,248,0.0,0.0,67,0.00,,,0.00,WUHU216HW,2013-01-21 12:00:00,
2013-01-21 07:05:00,19.8,10.5,30.19,SSW,203,0.0,0.0,67,0.00,,,0.00,WUHU216HW,2013-01-21 12:05:00,
2013-01-21 07:10:00,19.8,10.5,30.19,SSW,203,0.0,0.0,67,0.00,,,0.00,WUHU216HW,2013-01-21 12:10:00,
2013-01-21 07:15:00,19.8,10.5,30.19,SSW,203,0.0,0.0,67,0.00,,,0.00,WUHU216HW,2013-01-21 12:15:00,
2013-01-21 07:20:00,19.8,10.8,30.20,SSW,203,0.0,0.0,68,0.00,,,0.00,WUHU216HW,2013-01-21 12:20:00,
2013-01-21 07:25:00,19.8,10.8,30.20,South,180,0.0,0.0,68,0.00,,,0.00,WUHU216HW,2013-01-21 12:25:00,
2013-01-21 07:30:00,19.8,10.8,30.19,South,180,0.0,0.0,68,0.00,,,0.00,WUHU216HW,2013-01-21 12:30:00,
2013-01-21 07:35:00,19.8,10.8,30.19,South,180,0.0,0.0,68,0.00,,,0.00,WUHU216HW,2013-01-21 12:35:00,
2013-01-21 07:40:00,19.8,10.8,30.19,South,180,0.0,0.0,68,0.00,,,0.00,WUHU216HW,2013-01-21 12:40:00,
2013-01-21 07:45:00,19.8,10.8,30.19,South,180,0.0,0.0,68,0.00,,,0.00,WUHU216HW,2013-01-21 12:45:00,
2013-01-21 07:50:00,19.8,10.8,30.18,South,180,0.0,0.0,68,0.00,,,0.00,WUHU216HW,2013-01-21 12:50:00,
2013-01-21 07:55:00,19.8,10.8,30.18,South,180,0.0,0.0,68,0.00,,,0.00,WUHU216HW,2013-01-21 12:55:00,
2013-01-21 08:00:00,19.8,10.8,30.18,South,180,0.0,0.0,68,0.00,,,0.00,WUHU216HW,2013-01-21 13:00:00,
2013-01-21 08:05:00,19.8,10.8,30.19,South,180,0.0,0.0,68,0.00,,,0.00,WUHU216HW,2013-01-21 13:05:00,
2013-01-21 08:10:00,19.8,10.8,30.19,South,180,0.0,0.0,68,0.00,,,0.00,WUHU216HW,2013-01-21 13:10:00,
2013-01-21 08:15:00,20.0,11.0,30.19,SSE,158,0.0,0.0,68,0.00,,,0.00,WUHU216HW,2013-01-21 13:15:00,
2013-01-21 08:20:00,20.0,11.0,30.20,ESE,114,0.3,0.4,68,0.00,,,0.00,WUHU216HW,2013-01-21 13:20:00,
2013-01-21 08:25:00,20.3,11.3,30.20,SE,135,0.2,0.4,68,0.00,,,0.00,WUHU216HW,2013-01-21 13:25:00,
2013-01-21 08:30:00,20.5,11.9,30.20,NW,326,0.3,0.4,69,0.00,,,0.00,WUHU216HW,2013-01-21 13:30:00,
2013-01-21 08:35:00,20.7,11.7,30.20,ESE,113,0.0,0.7,68,0.00,,,0.00,WUHU216HW,2013-01-21 13:35:00,
2013-01-21 08:40:00,20.7,11.7,30.21,East,90,0.2,0.7,68,0.00,,,0.00,WUHU216HW,2013-01-21 13:40:00,
2013-01-21 08:45:00,21.1,12.1,30.20,ESE,113,0.4,0.7,68,0.00,,,0.00,WUHU216HW,2013-01-21 13:45:00,
2013-01-21 08:50:00,21.2,12.2,30.20,ESE,113,0.7,0.7,68,0.00,,,0.00,WUHU216HW,2013-01-21 13:50:00,
2013-01-21 08:55:00,21.4,12.4,30.20,ESE,113,0.9,0.9,68,0.00,,,0.00,WUHU216HW,2013-01-21 13:55:00,
2013-01-21 09:00:00,21.6,12.6,30.20,East,99,0.4,0.9,68,0.00,,,0.00,WUHU216HW,2013-01-21 14:00:00,
2013-01-21 09:05:00,21.8,12.8,30.20,ESE,114,0.3,0.9,68,0.00,,,0.00,WUHU216HW,2013-01-21 14:05:00,
2013-01-21 09:10:00,22.0,13.0,30.20,SE,135,0.4,0.4,68,0.00,,,0.00,WUHU216HW,2013-01-21 14:10:00,
2013-01-21 09:15:00,22.1,13.1,30.20,ESE,121,0.4,0.7,68,0.00,,,0.00,WUHU216HW,2013-01-21 14:15:00,
2013-01-21 09:20:00,22.3,13.3,30.20,ENE,71,0.6,1.3,68,0.00,,,0.00,WUHU216HW,2013-01-21 14:20:00,
2013-01-21 09:25:00,22.5,13.1,30.21,SW,225,0.5,1.3,67,0.00,,,0.00,WUHU216HW,2013-01-21 14:25:00,
2013-01-21 09:30:00,22.9,13.5,30.20,East,98,0.4,0.7,67,0.00,,,0.00,WUHU216HW,2013-01-21 14:30:00,
2013-01-21 09:35:00,23.0,13.3,30.20,SSE,158,0.0,0.7,66,0.00,,,0.00,WUHU216HW,2013-01-21 14:35:00,
2013-01-21 09:40:00,23.2,13.5,30.20,East,84,0.6,0.9,66,0.00,,,0.00,WUHU216HW,2013-01-21 14:40:00,
2013-01-21 09:45:00,23.4,13.7,30.20,SSW,203,0.3,0.9,66,0.00,,,0.00,WUHU216HW,2013-01-21 14:45:00,
2013-01-21 09:50:00,23.6,13.9,30.20,East,84,0.7,1.1,66,0.00,,,0.00,WUHU216HW,2013-01-21 14:50:00,
2013-01-21 09:55:00,23.9,14.1,30.20,ESE,113,0.9,1.1,66,0.00,,,0.00,WUHU216HW,2013-01-21 14:55:00,
2013-01-21 10:00:00,23.9,13.9,30.20,East,91,0.9,1.8,65,0.00,,,0.00,WUHU216HW,2013-01-21 15:00:00,
2013-01-21 15:00:00,27.2,15.8,30.06,NE,45,0.9,0.9,62,0.00,,,0.00,WUHU216HW,2013-01-21 20:00:00,
2013-01-21 15:05:00,27.0,15.7,30.06,NNE,23,1.1,1.8,62,0.00,,,0.00,WUHU216HW,2013-01-21 20:05:00,
2013-01-21 15:10:00,26.8,15.8,30.06,West,270,1.1,2.5,63,0.00,,,0.00,WUHU216HW,2013-01-21 20:10:00,
2013-01-21 15:15:00,26.6,16.0,30.06,ESE,104,1.2,2.5,64,0.00,,,0.00,WUHU216HW,2013-01-21 20:15:00,
2013-01-21 15:20:00,26.5,16.2,30.06,ENE,68,1.8,1.8,65,0.00,,,0.00,WUHU216HW,2013-01-21 20:20:00,
2013-01-21 15:25:00,26.3,16.0,30.05,NE,50,1.0,1.8,65,0.00,,,0.00,WUHU216HW,2013-01-21 20:25:00,
2013-01-21 15:30:00,26.3,16.4,30.05,ENE,75,0.8,1.8,66,0.00,,,0.00,WUHU216HW,2013-01-21 20:30:00,
2013-01-21 15:35:00,26.1,16.2,30.05,ESE,113,0.9,4.7,66,0.00,,,0.00,WUHU216HW,2013-01-21 20:35:00,
2013-01-21 15:40:00,26.1,16.6,30.05,SSW,203,1.3,4.7,67,0.00,,,0.00,WUHU216HW,2013-01-21 20:40:00,
2013-01-21 15:45:00,25.9,16.4,30.05,ENE,57,0.3,3.1,67,0.00,,,0.00,WUHU216HW,2013-01-21 20:45:00,
2013-01-21 15:50:00,25.7,16.6,30.04,ESE,113,1.1,2.0,68,0.00,,,0.00,WUHU216HW,2013-01-21 20:50:00,
2013-01-21 15:55:00,25.6,16.7,30.03,SSE,158,0.7,1.8,69,0.00,,,0.00,WUHU216HW,2013-01-21 20:55:00,
2013-01-21 16:00:00,25.2,16.7,30.04,East,90,1.1,1.3,70,0.00,,,0.00,WUHU216HW,2013-01-21 21:00:00,
2013-01-21 16:05:00,25.2,16.7,30.03,WSW,248,0.4,1.3,70,0.00,,,0.00,WUHU216HW,2013-01-21 21:05:00,
2013-01-21 16:10:00,25.0,16.6,30.03,SSE,158,0.4,1.8,70,0.00,,,0.00,WUHU216HW,2013-01-21 21:10:00,
2013-01-21 16:15:00,25.0,16.9,30.03,East,94,0.5,1.8,71,0.00,,,0.00,WUHU216HW,2013-01-21 21:15:00,
2013-01-21 16:20:00,24.8,16.8,30.03,NE,45,0.4,1.1,71,0.00,,,0.00,WUHU216HW,2013-01-21 21:20:00,
2013-01-21 16:25:00,24.8,16.8,30.03,SE,127,0.2,0.9,71,0.00,,,0.00,WUHU216HW,2013-01-21 21:25:00,
2013-01-21 16:30:00,24.8,16.8,30.03,ENE,68,0.9,0.9,71,0.00,,,0.00,WUHU216HW,2013-01-21 21:30:00,
2013-01-21 16:35:00,24.7,16.8,30.04,SSE,158,0.0,0.9,72,0.00,,,0.00,WUHU216HW,2013-01-21 21:35:00,
2013-01-21 16:40:00,24.5,16.8,30.03,ESE,113,0.4,0.9,72,0.00,,,0.00,WUHU216HW,2013-01-21 21:40:00,
2013-01-21 16:45:00,24.3,16.6,30.03,ESE,108,0.3,0.7,72,0.00,,,0.00,WUHU216HW,2013-01-21 21:45:00,
2013-01-21 16:50:00,24.1,16.7,30.03,East,99,0.3,0.7,73,0.00,,,0.00,WUHU216HW,2013-01-21 21:50:00,
2013-01-21 16:55:00,24.1,16.7,30.03,East,90,0.4,0.7,73,0.00,,,0.00,WUHU216HW,2013-01-21 21:55:00,
2013-01-21 17:00:00,24.1,16.7,30.03,ESE,113,0.0,0.4,73,0.00,,,0.00,WUHU216HW,2013-01-21 22:00:00,
2013-01-21 17:05:00,24.1,17.0,30.03,SE,135,0.0,0.4,74,0.00,,,0.00,WUHU216HW,2013-01-21 22:05:00,
2013-01-21 17:10:00,24.1,17.0,30.03,ESE,113,0.0,0.2,74,0.00,,,0.00,WUHU216HW,2013-01-21 22:10:00,
2013-01-21 17:15:00,24.1,17.0,30.03,ESE,113,0.2,0.2,74,0.00,,,0.00,WUHU216HW,2013-01-21 22:15:00,
2013-01-21 17:20:00,23.9,17.1,30.03,SSE,158,0.2,0.7,75,0.00,,,0.00,WUHU216HW,2013-01-21 22:20:00,
2013-01-21 17:25:00,24.1,17.3,30.03,ESE,113,0.4,0.7,75,0.00,,,0.00,WUHU216HW,2013-01-21 22:25:00,
2013-01-21 17:30:00,23.9,17.1,30.03,East,90,0.2,0.4,75,0.00,,,0.00,WUHU216HW,2013-01-21 22:30:00,
2013-01-21 17:35:00,23.9,17.1,30.03,East,90,0.4,0.4,75,0.00,,,0.00,WUHU216HW,2013-01-21 22:35:00,
2013-01-21 17:40:00,23.9,17.1,30.02,SE,135,0.0,0.4,75,0.00,,,0.00,WUHU216HW,2013-01-21 22:40:00,
2013-01-21 17:45:00,23.9,17.5,30.02,ESE,113,0.3,0.4,76,0.00,,,0.00,WUHU216HW,2013-01-21 22:45:00,
2013-01-21 17:50:00,23.9,17.5,30.02,North,0,0.2,0.4,76,0.00,,,0.00,WUHU216HW,2013-01-21 22:50:00,
2013-01-21 17:55:00,23.9,17.5,30.02,North,0,0.0,0.2,76,0.00,,,0.00,WUHU216HW,2013-01-21 22:55:00,
2013-01-21 18:00:00,23.8,17.3,30.02,North,0,0.0,0.2,76,0.00,,,0.00,WUHU216HW,2013-01-21 23:00:00,
2013-01-21 18:05:00,23.8,17.3,30.02,NNE,23,0.0,0.4,76,0.00,,,0.00,WUHU216HW,2013-01-21 23:05:00,
2013-01-21 18:10:00,23.8,17.3,30.02,NNE,23,0.0,0.4,76,0.00,,,0.00,WUHU216HW,2013-01-21 23:10:00,
2013-01-21 18:15:00,23.8,17.7,30.02,NNE,23,0.0,0.0,77,0.00,,,0.00,WUHU216HW,2013-01-21 23:15:00,
2013-01-21 18:20:00,23.8,17.7,30.02,NNE,23,0.0,0.0,77,0.00,,,0.00,WUHU216HW,2013-01-21 23:20:00,
2013-01-21 18:25:00,23.8,17.7,30.02,NNE,23,0.0,0.0,77,0.00,,,0.00,WUHU216HW,2013-01-21 23:25:00,
2013-01-21 18:30:00,23.8,17.7,30.02,NNE,23,0.0,0.0,77,0.00,,,0.00,WUHU216HW,2013-01-21 23:30:00,
2013-01-21 18:35:00,23.8,17.7,30.01,NNE,23,0.0,0.0,77,0.00,,,0.00,WUHU216HW,2013-01-21 23:35:00,
2013-01-21 18:40:00,23.8,17.7,30.01,NNE,23,0.0,0.0,77,0.00,,,0.00,WUHU216HW,2013-01-21 23:40:00,
2013-01-21 18:45:00,23.8,17.7,30.01,NNE,23,0.0,0.0,77,0.00,,,0.00,WUHU216HW,2013-01-21 23:45:00,
2013-01-21 18:50:00,23.9,17.8,30.02,SSW,203,0.0,0.2,77,0.00,,,0.00,WUHU216HW,2013-01-21 23:50:00,
2013-01-21 18:55:00,23.9,17.8,30.01,SSW,203,0.0,0.2,77,0.00,,,0.00,WUHU216HW,2013-01-21 23:55:00,
2013-01-21 19:00:00,23.9,17.8,30.02,SSW,203,0.0,0.0,77,0.00,,,0.00,WUHU216HW,2013-01-22 00:00:00,
2013-01-21 19:05:00,23.9,18.1,30.02,SSW,203,0.0,0.0,78,0.00,,,0.00,WUHU216HW,2013-01-22 00:05:00,
2013-01-21 19:10:00,24.1,18.3,30.02,SSW,203,0.0,0.0,78,0.00,,,0.00,WUHU216HW,2013-01-22 00:10:00,
2013-01-21 19:15:00,24.1,18.3,30.02,SSW,203,0.0,0.0,78,0.00,,,0.00,WUHU216HW,2013-01-22 00:15:00,
2013-01-21 19:20:00,24.1,18.3,30.02,South,180,0.0,0.0,78,0.00,,,0.00,WUHU216HW,2013-01-22 00:20:00,
2013-01-21 19:25:00,24.1,18.3,30.02,South,180,0.0,0.0,78,0.00,,,0.00,WUHU216HW,2013-01-22 00:25:00,
2013-01-21 19:30:00,24.1,18.5,30.02,South,180,0.0,0.0,79,0.00,,,0.00,WUHU216HW,2013-01-22 00:30:00,
2013-01-21 19:35:00,24.3,18.7,30.02,South,180,0.0,0.0,79,0.00,,,0.00,WUHU216HW,2013-01-22 00:35:00,
2013-01-21 19:40:00,24.3,18.7,30.02,South,180,0.0,0.0,79,0.00,,,0.00,WUHU216HW,2013-01-22 00:40:00,
2013-01-21 19:45:00,24.3,18.7,30.02,South,180,0.0,0.0,79,0.00,,,0.00,WUHU216HW,2013-01-22 00:45:00,
2013-01-21 19:50:00,24.3,18.7,30.01,South,180,0.0,0.0,79,0.00,,,0.00,WUHU216HW,2013-01-22 00:50:00,
2013-01-21 19:55:00,24.1,18.5,30.02,South,180,0.0,0.0,79,0.00,,,0.00,WUHU216HW,2013-01-22 00:55:00,
2013-01-21 20:00:00,24.1,18.5,30.02,South,180,0.0,0.0,79,0.00,,,0.00,WUHU216HW,2013-01-22 01:00:00,
2013-01-21 20:05:00,24.1,18.5,30.01,South,180,0.0,0.0,79,0.00,,,0.00,WUHU216HW,2013-01-22 01:05:00,
2013-01-21 20:10:00,24.1,18.5,30.01,South,180,0.0,0.0,79,0.00,,,0.00,WUHU216HW,2013-01-22 01:10:00,
2013-01-21 20:15:00,24.1,18.5,30.00,South,180,0.0,0.0,79,0.00,,,0.00,WUHU216HW,2013-01-22 01:15:00,
2013-01-21 20:20:00,24.1,18.5,30.00,South,180,0.0,0.0,79,0.00,,,0.00,WUHU216HW,2013-01-22 01:20:00,
2013-01-21 20:25:00,24.1,18.5,30.00,South,180,0.0,0.0,79,0.00,,,0.00,WUHU216HW,2013-01-22 01:25:00,
2013-01-21 20:30:00,24.1,18.5,29.99,South,180,0.0,0.0,79,0.00,,,0.00,WUHU216HW,2013-01-22 01:30:00,
2013-01-21 20:35:00,23.9,18.4,29.99,South,180,0.0,0.0,79,0.00,,,0.00,WUHU216HW,2013-01-22 01:35:00,
2013-01-21 20:40:00,23.8,17.9,29.99,South,180,0.0,0.0,78,0.00,,,0.00,WUHU216HW,2013-01-22 01:40:00,
2013-01-21 20:45:00,23.6,17.7,29.99,South,180,0.0,0.0,78,0.00,,,0.00,WUHU216HW,2013-01-22 01:45:00,
2013-01-21 20:50:00,23.4,17.6,30.00,South,180,0.8,1.3,78,0.00,,,0.00,WUHU216HW,2013-01-22 01:50:00,
2013-01-21 20:55:00,23.2,17.4,29.99,South,180,0.0,1.3,78,0.00,,,0.00,WUHU216HW,2013-01-22 01:55:00,
2013-01-21 21:00:00,23.0,17.2,29.99,South,180,0.0,0.0,78,0.00,,,0.00,WUHU216HW,2013-01-22 02:00:00,
2013-01-21 21:05:00,23.0,17.6,29.99,South,180,0.0,0.0,79,0.00,,,0.00,WUHU216HW,2013-01-22 02:05:00,
2013-01-21 21:10:00,23.0,17.6,29.98,South,180,0.0,0.0,79,0.00,,,0.00,WUHU216HW,2013-01-22 02:10:00,
2013-01-21 21:15:00,22.9,17.4,29.98,South,180,0.0,0.0,79,0.00,,,0.00,WUHU216HW,2013-01-22 02:15:00,
2013-01-21 21:20:00,22.7,17.2,29.98,South,180,0.0,0.0,79,0.00,,,0.00,WUHU216HW,2013-01-22 02:20:00,
2013-01-21 21:25:00,22.7,17.2,29.98,South,180,0.0,0.0,79,0.00,,,0.00,WUHU216HW,2013-01-22 02:25:00,
2013-01-21 21:30:00,22.7,17.2,29.97,South,180,0.0,0.0,79,0.00,,,0.00,WUHU216HW,2013-01-22 02:30:00,
2013-01-21 21:35:00,22.7,17.5,29.97,South,180,0.0,0.0,80,0.00,,,0.00,WUHU216HW,2013-01-22 02:35:00,
2013-01-21 21:40:00,22.7,17.5,29.97,South,180,0.0,0.0,80,0.00,,,0.00,WUHU216HW,2013-01-22 02:40:00,
2013-01-21 21:45:00,22.5,17.3,29.97,South,180,0.0,0.0,80,0.00,,,0.00,WUHU216HW,2013-01-22 02:45:00,
2013-01-21 21:50:00,22.3,17.1,29.96,South,180,0.0,0.0,80,0.00,,,0.00,WUHU216HW,2013-01-22 02:50:00,
2013-01-21 21:55:00,22.3,17.1,29.96,South,180,0.0,0.0,80,0.00,,,0.00,WUHU216HW,2013-01-22 02:55:00,
2013-01-21 22:00:00,22.5,17.3,29.97,South,180,0.0,0.0,80,0.00,,,0.00,WUHU216HW,2013-01-22 03:00:00,
2013-01-21 22:05:00,22.5,17.6,29.96,South,180,0.0,0.0,81,0.00,,,0.00,WUHU216HW,2013-01-22 03:05:00,